sensor_id;sensor_type;location;lat;lon;timestamp;pressure;altitude;pressure_sealevel;temperature;humidity
47530;BME280;33272;51.922;7.730;2022-08-19T00:00:38;100535.16;;;17.68;100.00
47530;BME280;33272;51.922;7.730;2022-08-19T00:03:05;100539.47;;;17.68;100.00
47530;BME280;33272;51.922;7.730;2022-08-19T00:05:33;100547.19;;;17.66;100.00
47530;BME280;33272;51.922;7.730;2022-08-19T00:08:02;100543.72;;;17.66;100.00
47530;BME280;33272;51.922;7.730;2022-08-19T00:10:30;100548.81;;;17.64;100.00
47530;BME280;33272;51.922;7.730;2022-08-19T00:12:57;100557.44;;;17.65;100.00
47530;BME280;33272;51.922;7.730;2022-08-19T00:15:24;100548.75;;;17.63;100.00
47530;BME280;33272;51.922;7.730;2022-08-19T00:17:51;100550.38;;;17.60;100.00
47530;BME280;33272;51.922;7.730;2022-08-19T00:20:20;100546.03;;;17.59;100.00
47530;BME280;33272;51.922;7.730;2022-08-19T00:22:48;100556.25;;;17.56;100.00
47530;BME280;33272;51.922;7.730;2022-08-19T00:25:17;100559.59;;;17.54;100.00
47530;BME280;33272;51.922;7.730;2022-08-19T00:27:44;100559.47;;;17.51;100.00
47530;BME280;33272;51.922;7.730;2022-08-19T00:30:12;100563.69;;;17.49;100.00
47530;BME280;33272;51.922;7.730;2022-08-19T00:32:39;100552.31;;;17.45;100.00
47530;BME280;33272;51.922;7.730;2022-08-19T00:35:08;100553.16;;;17.44;100.00
47530;BME280;33272;51.922;7.730;2022-08-19T00:37:37;100549.69;;;17.44;100.00
47530;BME280;33272;51.922;7.730;2022-08-19T00:40:10;100548.75;;;17.43;100.00
47530;BME280;33272;51.922;7.730;2022-08-19T00:42:40;100556.59;;;17.45;100.00
47530;BME280;33272;51.922;7.730;2022-08-19T00:45:12;100556.47;;;17.42;100.00
47530;BME280;33272;51.922;7.730;2022-08-19T00:47:39;100550.34;;;17.40;100.00
47530;BME280;33272;51.922;7.730;2022-08-19T00:50:09;100543.41;;;17.38;100.00
47530;BME280;33272;51.922;7.730;2022-08-19T00:52:39;100544.16;;;17.36;100.00
47530;BME280;33272;51.922;7.730;2022-08-19T00:55:19;100542.25;;;17.32;100.00
47530;BME280;33272;51.922;7.730;2022-08-19T00:57:53;100542.94;;;17.28;100.00
47530;BME280;33272;51.922;7.730;2022-08-19T01:00:23;100534.16;;;17.24;100.00
47530;BME280;33272;51.922;7.730;2022-08-19T01:02:51;100527.16;;;17.22;100.00
47530;BME280;33272;51.922;7.730;2022-08-19T01:05:24;100526.16;;;17.18;100.00
47530;BME280;33272;51.922;7.730;2022-08-19T01:07:54;100522.50;;;17.14;100.00
47530;BME280;33272;51.922;7.730;2022-08-19T01:10:25;100520.63;;;17.10;100.00
47530;BME280;33272;51.922;7.730;2022-08-19T01:12:55;100527.50;;;17.10;100.00
47530;BME280;33272;51.922;7.730;2022-08-19T01:15:27;100525.75;;;17.09;100.00
47530;BME280;33272;51.922;7.730;2022-08-19T01:17:57;100527.28;;;17.05;100.00
47530;BME280;33272;51.922;7.730;2022-08-19T01:20:26;100525.38;;;17.01;100.00
47530;BME280;33272;51.922;7.730;2022-08-19T01:22:58;100522.66;;;16.98;100.00
47530;BME280;33272;51.922;7.730;2022-08-19T01:25:31;100524.31;;;16.96;100.00
47530;BME280;33272;51.922;7.730;2022-08-19T01:27:59;100523.25;;;16.92;100.00
47530;BME280;33272;51.922;7.730;2022-08-19T01:30:30;100524.97;;;16.92;100.00
47530;BME280;33272;51.922;7.730;2022-08-19T01:32:58;100530.88;;;16.89;100.00
47530;BME280;33272;51.922;7.730;2022-08-19T01:35:28;100531.56;;;16.85;100.00
47530;BME280;33272;51.922;7.730;2022-08-19T01:38:02;100536.69;;;16.84;100.00
47530;BME280;33272;51.922;7.730;2022-08-19T01:40:35;100528.78;;;16.81;100.00
47530;BME280;33272;51.922;7.730;2022-08-19T01:43:04;100526.06;;;16.78;100.00
47530;BME280;33272;51.922;7.730;2022-08-19T01:45:33;100519.94;;;16.76;100.00
47530;BME280;33272;51.922;7.730;2022-08-19T01:48:00;100523.31;;;16.75;100.00
47530;BME280;33272;51.922;7.730;2022-08-19T01:50:28;100524.91;;;16.73;100.00
47530;BME280;33272;51.922;7.730;2022-08-19T01:52:57;100523.97;;;16.71;100.00
47530;BME280;33272;51.922;7.730;2022-08-19T01:55:25;100518.59;;;16.66;100.00
47530;BME280;33272;51.922;7.730;2022-08-19T01:57:57;100517.63;;;16.64;100.00
47530;BME280;33272;51.922;7.730;2022-08-19T02:00:29;100514.09;;;16.62;100.00
47530;BME280;33272;51.922;7.730;2022-08-19T02:02:57;100514.09;;;16.62;100.00
47530;BME280;33272;51.922;7.730;2022-08-19T02:05:25;100515.88;;;16.63;100.00
47530;BME280;33272;51.922;7.730;2022-08-19T02:07:52;100520.22;;;16.64;100.00
47530;BME280;33272;51.922;7.730;2022-08-19T02:10:22;100515.13;;;16.65;100.00
47530;BME280;33272;51.922;7.730;2022-08-19T02:12:49;100523.91;;;16.69;100.00
47530;BME280;33272;51.922;7.730;2022-08-19T02:15:17;100524.78;;;16.69;100.00
47530;BME280;33272;51.922;7.730;2022-08-19T02:17:46;100518.00;;;16.72;100.00
47530;BME280;33272;51.922;7.730;2022-08-19T02:20:15;100512.81;;;16.72;100.00
47530;BME280;33272;51.922;7.730;2022-08-19T02:22:42;100506.00;;;16.74;100.00
47530;BME280;33272;51.922;7.730;2022-08-19T02:25:10;100503.38;;;16.72;100.00
47530;BME280;33272;51.922;7.730;2022-08-19T02:27:39;100504.19;;;16.71;100.00
47530;BME280;33272;51.922;7.730;2022-08-19T02:30:11;100502.34;;;16.68;100.00
47530;BME280;33272;51.922;7.730;2022-08-19T02:32:39;100503.97;;;16.66;100.00
47530;BME280;33272;51.922;7.730;2022-08-19T02:35:07;100494.47;;;16.65;100.00
47530;BME280;33272;51.922;7.730;2022-08-19T02:37:35;100501.34;;;16.65;100.00
47530;BME280;33272;51.922;7.730;2022-08-19T02:40:19;100498.75;;;16.65;100.00
47530;BME280;33272;51.922;7.730;2022-08-19T02:42:48;100510.75;;;16.64;100.00
47530;BME280;33272;51.922;7.730;2022-08-19T02:45:16;100512.41;;;16.62;100.00
47530;BME280;33272;51.922;7.730;2022-08-19T02:47:43;100515.81;;;16.61;100.00
47530;BME280;33272;51.922;7.730;2022-08-19T02:50:10;100516.59;;;16.60;100.00
47530;BME280;33272;51.922;7.730;2022-08-19T02:52:38;100507.97;;;16.60;100.00
47530;BME280;33272;51.922;7.730;2022-08-19T02:55:07;100505.38;;;16.60;100.00
47530;BME280;33272;51.922;7.730;2022-08-19T02:57:34;100498.59;;;16.62;100.00
47530;BME280;33272;51.922;7.730;2022-08-19T03:00:05;100492.59;;;16.63;100.00
47530;BME280;33272;51.922;7.730;2022-08-19T03:02:33;100494.38;;;16.64;100.00
47530;BME280;33272;51.922;7.730;2022-08-19T03:05:03;100492.66;;;16.64;100.00
47530;BME280;33272;51.922;7.730;2022-08-19T03:07:30;100492.75;;;16.66;100.00
47530;BME280;33272;51.922;7.730;2022-08-19T03:09:58;100487.59;;;16.66;100.00
47530;BME280;33272;51.922;7.730;2022-08-19T03:12:25;100492.88;;;16.69;100.00
47530;BME280;33272;51.922;7.730;2022-08-19T03:14:52;100499.03;;;16.71;100.00
47530;BME280;33272;51.922;7.730;2022-08-19T03:17:21;100495.63;;;16.72;100.00
47530;BME280;33272;51.922;7.730;2022-08-19T03:19:48;100497.38;;;16.73;100.00
47530;BME280;33272;51.922;7.730;2022-08-19T03:22:15;100500.84;;;16.74;100.00
47530;BME280;33272;51.922;7.730;2022-08-19T03:24:42;100497.38;;;16.73;100.00
47530;BME280;33272;51.922;7.730;2022-08-19T03:27:09;100511.13;;;16.72;100.00
47530;BME280;33272;51.922;7.730;2022-08-19T03:29:38;100508.44;;;16.71;100.00
47530;BME280;33272;51.922;7.730;2022-08-19T03:32:06;100519.63;;;16.69;100.00
47530;BME280;33272;51.922;7.730;2022-08-19T03:34:37;100510.84;;;16.66;100.00
47530;BME280;33272;51.922;7.730;2022-08-19T03:37:08;100512.53;;;16.65;100.00
47530;BME280;33272;51.922;7.730;2022-08-19T03:39:37;100515.88;;;16.63;100.00
47530;BME280;33272;51.922;7.730;2022-08-19T03:42:05;100506.34;;;16.62;100.00
47530;BME280;33272;51.922;7.730;2022-08-19T03:44:32;100504.56;;;16.61;100.00
47530;BME280;33272;51.922;7.730;2022-08-19T03:47:02;100511.44;;;16.60;100.00
47530;BME280;33272;51.922;7.730;2022-08-19T03:49:31;100501.09;;;16.60;100.00
47530;BME280;33272;51.922;7.730;2022-08-19T03:52:03;100515.81;;;16.61;100.00
47530;BME280;33272;51.922;7.730;2022-08-19T03:54:35;100515.72;;;16.60;100.00
47530;BME280;33272;51.922;7.730;2022-08-19T03:57:04;100523.47;;;16.60;100.00
47530;BME280;33272;51.922;7.730;2022-08-19T03:59:34;100526.88;;;16.59;100.00
47530;BME280;33272;51.922;7.730;2022-08-19T04:02:06;100519.88;;;16.56;100.00
47530;BME280;33272;51.922;7.730;2022-08-19T04:04:35;100518.91;;;16.54;100.00
47530;BME280;33272;51.922;7.730;2022-08-19T04:07:04;100514.47;;;16.52;100.00
47530;BME280;33272;51.922;7.730;2022-08-19T04:09:33;100514.34;;;16.49;100.00
47530;BME280;33272;51.922;7.730;2022-08-19T04:12:03;100512.56;;;16.48;100.00
47530;BME280;33272;51.922;7.730;2022-08-19T04:14:32;100518.56;;;16.47;100.00
47530;BME280;33272;51.922;7.730;2022-08-19T04:17:01;100525.34;;;16.44;100.00
47530;BME280;33272;51.922;7.730;2022-08-19T04:19:31;100529.56;;;16.42;100.00
47530;BME280;33272;51.922;7.730;2022-08-19T04:21:58;100529.50;;;16.41;100.00
47530;BME280;33272;51.922;7.730;2022-08-19T04:24:27;100529.44;;;16.39;100.00
47530;BME280;33272;51.922;7.730;2022-08-19T04:26:54;100529.44;;;16.39;100.00
47530;BME280;33272;51.922;7.730;2022-08-19T04:29:24;100525.94;;;16.39;100.00
47530;BME280;33272;51.922;7.730;2022-08-19T04:31:54;100521.59;;;16.38;100.00
47530;BME280;33272;51.922;7.730;2022-08-19T04:34:24;100524.13;;;16.36;100.00
47530;BME280;33272;51.922;7.730;2022-08-19T04:36:53;100518.88;;;16.35;100.00
47530;BME280;33272;51.922;7.730;2022-08-19T04:39:24;100523.16;;;16.34;100.00
47530;BME280;33272;51.922;7.730;2022-08-19T04:42:14;100534.38;;;16.35;100.00
47530;BME280;33272;51.922;7.730;2022-08-19T04:44:59;100524.13;;;16.36;100.00
47530;BME280;33272;51.922;7.730;2022-08-19T04:47:28;100526.91;;;16.41;100.00
47530;BME280;33272;51.922;7.730;2022-08-19T04:49:57;100525.28;;;16.43;100.00
47530;BME280;33272;51.922;7.730;2022-08-19T04:52:24;100526.31;;;16.47;100.00
47530;BME280;33272;51.922;7.730;2022-08-19T04:54:51;100529.03;;;16.50;100.00
47530;BME280;33272;51.922;7.730;2022-08-19T04:57:22;100524.91;;;16.53;100.00
47530;BME280;33272;51.922;7.730;2022-08-19T04:59:53;100520.75;;;16.57;100.00
47530;BME280;33272;51.922;7.730;2022-08-19T05:02:20;100532.19;;;16.62;100.00
47530;BME280;33272;51.922;7.730;2022-08-19T05:04:50;100536.59;;;16.64;100.00
47530;BME280;33272;51.922;7.730;2022-08-19T05:07:17;100544.59;;;16.69;100.00
47530;BME280;33272;51.922;7.730;2022-08-19T05:09:44;100546.44;;;16.72;100.00
47530;BME280;33272;51.922;7.730;2022-08-19T05:12:11;100549.16;;;16.75;100.00
47530;BME280;33272;51.922;7.730;2022-08-19T05:14:40;100557.00;;;16.76;100.00
47530;BME280;33272;51.922;7.730;2022-08-19T05:17:07;100559.81;;;16.81;100.00
47530;BME280;33272;51.922;7.730;2022-08-19T05:19:34;100561.84;;;16.88;100.00
47530;BME280;33272;51.922;7.730;2022-08-19T05:22:18;100562.19;;;16.96;100.00
47530;BME280;33272;51.922;7.730;2022-08-19T05:25:05;100555.81;;;17.07;100.00
47530;BME280;33272;51.922;7.730;2022-08-19T05:27:32;100562.34;;;17.18;100.00
47530;BME280;33272;51.922;7.730;2022-08-19T05:30:01;100561.13;;;17.29;100.00
47530;BME280;33272;51.922;7.730;2022-08-19T05:32:28;100564.97;;;17.39;100.00
47530;BME280;33272;51.922;7.730;2022-08-19T05:34:56;100567.88;;;17.66;100.00
47530;BME280;33272;51.922;7.730;2022-08-19T05:37:23;100563.59;;;18.07;100.00
47530;BME280;33272;51.922;7.730;2022-08-19T05:39:52;100562.75;;;18.51;100.00
47530;BME280;33272;51.922;7.730;2022-08-19T05:42:20;100560.56;;;18.83;100.00
47530;BME280;33272;51.922;7.730;2022-08-19T05:44:49;100549.50;;;19.11;100.00
47530;BME280;33272;51.922;7.730;2022-08-19T05:47:18;100558.63;;;19.50;100.00
47530;BME280;33272;51.922;7.730;2022-08-19T05:49:46;100559.22;;;19.92;100.00
47530;BME280;33272;51.922;7.730;2022-08-19T05:52:15;100560.44;;;20.29;100.00
47530;BME280;33272;51.922;7.730;2022-08-19T05:54:43;100561.03;;;20.47;100.00
47530;BME280;33272;51.922;7.730;2022-08-19T05:57:11;100552.59;;;20.54;100.00
47530;BME280;33272;51.922;7.730;2022-08-19T05:59:38;100559.13;;;20.69;100.00
47530;BME280;33272;51.922;7.730;2022-08-19T06:02:06;100551.09;;;20.91;100.00
47530;BME280;33272;51.922;7.730;2022-08-19T06:04:34;100549.94;;;21.12;100.00
47530;BME280;33272;51.922;7.730;2022-08-19T06:07:01;100556.59;;;21.32;100.00
47530;BME280;33272;51.922;7.730;2022-08-19T06:09:29;100552.03;;;21.55;100.00
47530;BME280;33272;51.922;7.730;2022-08-19T06:11:58;100559.69;;;21.82;100.00
47530;BME280;33272;51.922;7.730;2022-08-19T06:14:32;100546.28;;;22.03;100.00
47530;BME280;33272;51.922;7.730;2022-08-19T06:17:00;100556.47;;;22.27;100.00
47530;BME280;33272;51.922;7.730;2022-08-19T06:19:29;100557.13;;;22.55;100.00
47530;BME280;33272;51.922;7.730;2022-08-19T06:21:59;100557.75;;;22.84;100.00
47530;BME280;33272;51.922;7.730;2022-08-19T06:24:29;100552.81;;;22.98;100.00
47530;BME280;33272;51.922;7.730;2022-08-19T06:26:58;100558.47;;;23.18;100.00
47530;BME280;33272;51.922;7.730;2022-08-19T06:29:27;100554.00;;;23.12;100.00
47530;BME280;33272;51.922;7.730;2022-08-19T06:31:57;100555.63;;;23.07;100.00
47530;BME280;33272;51.922;7.730;2022-08-19T06:34:26;100553.88;;;23.06;100.00
47530;BME280;33272;51.922;7.730;2022-08-19T06:36:55;100557.97;;;22.95;100.00
47530;BME280;33272;51.922;7.730;2022-08-19T06:39:28;100550.53;;;22.72;100.00
47530;BME280;33272;51.922;7.730;2022-08-19T06:41:59;100546.81;;;22.61;100.00
47530;BME280;33272;51.922;7.730;2022-08-19T06:44:29;100544.66;;;22.43;100.00
47530;BME280;33272;51.922;7.730;2022-08-19T06:47:03;100551.25;;;22.27;100.00
47530;BME280;33272;51.922;7.730;2022-08-19T06:49:31;100545.91;;;22.21;100.00
47530;BME280;33272;51.922;7.730;2022-08-19T06:51:59;100544.97;;;22.19;100.00
47530;BME280;33272;51.922;7.730;2022-08-19T06:54:28;100543.28;;;22.21;100.00
47530;BME280;33272;51.922;7.730;2022-08-19T06:56:56;100536.13;;;22.14;100.00
47530;BME280;33272;51.922;7.730;2022-08-19T06:59:24;100532.78;;;22.16;100.00
47530;BME280;33272;51.922;7.730;2022-08-19T07:01:55;100532.66;;;22.13;100.00
47530;BME280;33272;51.922;7.730;2022-08-19T07:04:26;100539.56;;;22.11;100.00
47530;BME280;33272;51.922;7.730;2022-08-19T07:06:58;100546.13;;;22.30;100.00
47530;BME280;33272;51.922;7.730;2022-08-19T07:09:27;100549.75;;;22.37;100.00
47530;BME280;33272;51.922;7.730;2022-08-19T07:11:55;100547.78;;;22.27;100.00
47530;BME280;33272;51.922;7.730;2022-08-19T07:14:25;100552.19;;;22.31;100.00
47530;BME280;33272;51.922;7.730;2022-08-19T07:16:55;100547.41;;;22.49;100.00
47530;BME280;33272;51.922;7.730;2022-08-19T07:19:25;100553.94;;;22.70;100.00
47530;BME280;33272;51.922;7.730;2022-08-19T07:21:54;100558.75;;;22.90;100.00
47530;BME280;33272;51.922;7.730;2022-08-19T07:24:24;100561.56;;;22.98;100.00
47530;BME280;33272;51.922;7.730;2022-08-19T07:26:55;100553.63;;;22.94;100.00
47530;BME280;33272;51.922;7.730;2022-08-19T07:29:23;100557.94;;;22.93;100.00
47530;BME280;33272;51.922;7.730;2022-08-19T07:31:51;100557.81;;;22.88;100.00
47530;BME280;33272;51.922;7.730;2022-08-19T07:34:18;100564.13;;;22.95;100.00
47530;BME280;33272;51.922;7.730;2022-08-19T07:36:45;100559.53;;;22.86;100.00
47530;BME280;33272;51.922;7.730;2022-08-19T07:39:15;100558.72;;;22.89;100.00
47530;BME280;33272;51.922;7.730;2022-08-19T07:41:43;100572.97;;;23.03;100.00
47530;BME280;33272;51.922;7.730;2022-08-19T07:44:13;100584.47;;;23.11;100.00
47530;BME280;33272;51.922;7.730;2022-08-19T07:46:43;100573.16;;;23.12;100.00
47530;BME280;33272;51.922;7.730;2022-08-19T07:49:12;100575.75;;;23.12;99.43
47530;BME280;33272;51.922;7.730;2022-08-19T07:51:43;100581.13;;;23.19;100.00
47530;BME280;33272;51.922;7.730;2022-08-19T07:54:10;100576.56;;;23.08;100.00
47530;BME280;33272;51.922;7.730;2022-08-19T07:56:38;100581.19;;;23.22;100.00
47530;BME280;33272;51.922;7.730;2022-08-19T07:59:05;100578.81;;;23.35;100.00
47530;BME280;33272;51.922;7.730;2022-08-19T08:01:35;100586.94;;;23.49;99.58
47530;BME280;33272;51.922;7.730;2022-08-19T08:04:02;100577.63;;;23.64;99.23
47530;BME280;33272;51.922;7.730;2022-08-19T08:06:47;100586.84;;;23.90;98.03
47530;BME280;33272;51.922;7.730;2022-08-19T08:09:36;100592.41;;;24.12;96.34
47530;BME280;33272;51.922;7.730;2022-08-19T08:12:07;100596.09;;;24.23;96.44
47530;BME280;33272;51.922;7.730;2022-08-19T08:14:39;100593.03;;;24.47;94.90
47530;BME280;33272;51.922;7.730;2022-08-19T08:17:10;100599.28;;;24.58;94.85
47530;BME280;33272;51.922;7.730;2022-08-19T08:19:38;100609.75;;;24.58;94.52
47530;BME280;33272;51.922;7.730;2022-08-19T08:22:07;100615.72;;;24.49;93.43
47530;BME280;33272;51.922;7.730;2022-08-19T08:24:55;100621.00;;;24.51;94.59
47530;BME280;33272;51.922;7.730;2022-08-19T08:27:24;100621.84;;;24.50;93.15
47530;BME280;33272;51.922;7.730;2022-08-19T08:29:51;100625.41;;;24.54;93.58
47530;BME280;33272;51.922;7.730;2022-08-19T08:32:19;100635.13;;;24.64;94.11
47530;BME280;33272;51.922;7.730;2022-08-19T08:34:46;100630.00;;;24.71;93.13
47530;BME280;33272;51.922;7.730;2022-08-19T08:37:14;100623.94;;;24.74;93.26
47530;BME280;33272;51.922;7.730;2022-08-19T08:39:41;100619.84;;;24.93;93.33
47530;BME280;33272;51.922;7.730;2022-08-19T08:42:15;100626.13;;;25.06;88.95
47530;BME280;33272;51.922;7.730;2022-08-19T08:44:53;100621.63;;;24.95;87.56
47530;BME280;33272;51.922;7.730;2022-08-19T08:47:26;100619.13;;;25.06;91.77
47530;BME280;33272;51.922;7.730;2022-08-19T08:50:00;100619.13;;;25.06;90.80
47530;BME280;33272;51.922;7.730;2022-08-19T08:52:32;100627.22;;;25.22;90.87
47530;BME280;33272;51.922;7.730;2022-08-19T08:55:08;100619.56;;;25.35;87.53
47530;BME280;33272;51.922;7.730;2022-08-19T08:57:44;100625.84;;;25.53;89.53
47530;BME280;33272;51.922;7.730;2022-08-19T09:00:21;100624.16;;;25.58;88.16
47530;BME280;33272;51.922;7.730;2022-08-19T09:02:53;100619.94;;;25.71;86.61
47530;BME280;33272;51.922;7.730;2022-08-19T09:05:21;100618.19;;;25.71;86.63
47530;BME280;33272;51.922;7.730;2022-08-19T09:07:58;100619.91;;;25.69;84.83
47530;BME280;33272;51.922;7.730;2022-08-19T09:10:31;100617.41;;;25.80;85.76
47530;BME280;33272;51.922;7.730;2022-08-19T09:13:10;100614.72;;;25.75;82.11
47530;BME280;33272;51.922;7.730;2022-08-19T09:15:44;100608.78;;;25.90;83.33
47530;BME280;33272;51.922;7.730;2022-08-19T09:18:15;100610.66;;;26.03;83.52
47530;BME280;33272;51.922;7.730;2022-08-19T09:20:43;100610.63;;;26.00;84.23
47530;BME280;33272;51.922;7.730;2022-08-19T09:23:10;100614.25;;;26.16;84.10
47530;BME280;33272;51.922;7.730;2022-08-19T09:25:37;100620.38;;;26.15;80.45
47530;BME280;33272;51.922;7.730;2022-08-19T09:28:06;100614.25;;;26.15;81.65
47530;BME280;33272;51.922;7.730;2022-08-19T09:30:40;100614.31;;;26.21;79.30
47530;BME280;33272;51.922;7.730;2022-08-19T09:33:07;100617.97;;;26.40;81.44
47530;BME280;33272;51.922;7.730;2022-08-19T09:35:36;100617.28;;;26.62;80.73
47530;BME280;33272;51.922;7.730;2022-08-19T09:38:03;100612.94;;;26.72;79.79
47530;BME280;33272;51.922;7.730;2022-08-19T09:40:30;100608.69;;;26.98;79.42
47530;BME280;33272;51.922;7.730;2022-08-19T09:42:58;100607.09;;;27.22;78.54
47530;BME280;33272;51.922;7.730;2022-08-19T09:45:28;100613.31;;;27.52;78.24
47530;BME280;33272;51.922;7.730;2022-08-19T09:47:56;100611.66;;;27.92;77.28
47530;BME280;33272;51.922;7.730;2022-08-19T09:50:24;100611.69;;;28.13;76.89
47530;BME280;33272;51.922;7.730;2022-08-19T09:52:52;100603.78;;;28.10;76.07
47530;BME280;33272;51.922;7.730;2022-08-19T09:55:20;100600.25;;;27.87;76.46
47530;BME280;33272;51.922;7.730;2022-08-19T09:57:47;100595.84;;;27.72;75.32
47530;BME280;33272;51.922;7.730;2022-08-19T10:00:16;100609.84;;;27.53;71.63
47530;BME280;33272;51.922;7.730;2022-08-19T10:02:43;100610.75;;;27.65;74.15
47530;BME280;33272;51.922;7.730;2022-08-19T10:05:10;100597.59;;;27.68;73.66
47530;BME280;33272;51.922;7.730;2022-08-19T10:07:57;100598.41;;;27.40;71.86
47530;BME280;33272;51.922;7.730;2022-08-19T10:10:26;100600.97;;;27.26;72.67
47530;BME280;33272;51.922;7.730;2022-08-19T10:12:53;100599.19;;;27.17;72.32
47530;BME280;33272;51.922;7.730;2022-08-19T10:15:20;100600.09;;;27.30;71.80
47530;BME280;33272;51.922;7.730;2022-08-19T10:17:47;100602.75;;;27.32;70.75
47530;BME280;33272;51.922;7.730;2022-08-19T10:20:15;100607.16;;;27.42;70.14
47530;BME280;33272;51.922;7.730;2022-08-19T10:22:42;100594.06;;;27.53;68.92
47530;BME280;33272;51.922;7.730;2022-08-19T10:25:12;100604.63;;;27.77;68.42
47530;BME280;33272;51.922;7.730;2022-08-19T10:27:40;100594.97;;;27.73;68.46
47530;BME280;33272;51.922;7.730;2022-08-19T10:30:09;100588.81;;;27.74;64.00
47530;BME280;33272;51.922;7.730;2022-08-19T10:32:36;100601.09;;;27.77;67.28
47530;BME280;33272;51.922;7.730;2022-08-19T10:35:04;100603.78;;;27.81;67.66
47530;BME280;33272;51.922;7.730;2022-08-19T10:37:34;100596.75;;;27.86;67.81
47530;BME280;33272;51.922;7.730;2022-08-19T10:40:02;100594.13;;;28.05;67.42
47530;BME280;33272;51.922;7.730;2022-08-19T10:42:31;100601.13;;;28.33;66.46
47530;BME280;33272;51.922;7.730;2022-08-19T10:44:58;100594.13;;;28.31;66.31
47530;BME280;33272;51.922;7.730;2022-08-19T10:47:25;100588.88;;;28.14;66.70
47530;BME280;33272;51.922;7.730;2022-08-19T10:49:54;100595.88;;;28.06;66.48
47530;BME280;33272;51.922;7.730;2022-08-19T10:52:39;100582.72;;;27.92;65.51
47530;BME280;33272;51.922;7.730;2022-08-19T10:55:07;100590.63;;;27.95;66.63
47530;BME280;33272;51.922;7.730;2022-08-19T10:57:53;100585.38;;;28.00;66.59
47530;BME280;33272;51.922;7.730;2022-08-19T11:00:21;100587.13;;;27.91;67.06
47530;BME280;33272;51.922;7.730;2022-08-19T11:02:49;100588.00;;;27.92;67.16
47530;BME280;33272;51.922;7.730;2022-08-19T11:05:16;100582.75;;;28.01;66.59
47530;BME280;33272;51.922;7.730;2022-08-19T11:07:44;100590.63;;;28.04;65.85
47530;BME280;33272;51.922;7.730;2022-08-19T11:10:13;100582.72;;;28.09;65.46
47530;BME280;33272;51.922;7.730;2022-08-19T11:12:44;100582.72;;;28.12;65.50
47530;BME280;33272;51.922;7.730;2022-08-19T11:15:14;100585.34;;;28.15;64.72
47530;BME280;33272;51.922;7.730;2022-08-19T11:17:42;100576.59;;;28.25;64.29
47530;BME280;33272;51.922;7.730;2022-08-19T11:20:10;100578.31;;;28.34;64.21
47530;BME280;33272;51.922;7.730;2022-08-19T11:22:38;100577.44;;;28.27;63.48
47530;BME280;33272;51.922;7.730;2022-08-19T11:25:07;100578.34;;;28.02;60.41
47530;BME280;33272;51.922;7.730;2022-08-19T11:27:39;100563.44;;;28.02;62.64
47530;BME280;33272;51.922;7.730;2022-08-19T11:30:09;100570.44;;;27.99;62.16
47530;BME280;33272;51.922;7.730;2022-08-19T11:32:38;100561.69;;;28.01;62.36
47530;BME280;33272;51.922;7.730;2022-08-19T11:35:06;100567.81;;;28.17;61.47
47530;BME280;33272;51.922;7.730;2022-08-19T11:37:34;100569.56;;;28.35;60.44
47530;BME280;33272;51.922;7.730;2022-08-19T11:40:05;100562.56;;;28.48;59.54
47530;BME280;33272;51.922;7.730;2022-08-19T11:42:32;100571.28;;;28.53;59.19
47530;BME280;33272;51.922;7.730;2022-08-19T11:45:17;100549.34;;;28.52;56.52
47530;BME280;33272;51.922;7.730;2022-08-19T11:47:45;100548.47;;;28.39;57.47
47530;BME280;33272;51.922;7.730;2022-08-19T11:50:14;100546.75;;;28.35;57.83
47530;BME280;33272;51.922;7.730;2022-08-19T11:52:42;100542.34;;;28.48;58.26
47530;BME280;33272;51.922;7.730;2022-08-19T11:55:11;100553.69;;;28.73;57.82
47530;BME280;33272;51.922;7.730;2022-08-19T11:57:38;100554.47;;;29.04;58.05
47530;BME280;33272;51.922;7.730;2022-08-19T12:00:08;100553.44;;;29.33;56.80
47530;BME280;33272;51.922;7.730;2022-08-19T12:02:37;100544.63;;;29.42;56.79
47530;BME280;33272;51.922;7.730;2022-08-19T12:05:07;100549.00;;;29.40;53.01
47530;BME280;33272;51.922;7.730;2022-08-19T12:07:34;100554.19;;;29.55;56.53
47530;BME280;33272;51.922;7.730;2022-08-19T12:10:02;100549.91;;;29.39;55.37
47530;BME280;33272;51.922;7.730;2022-08-19T12:12:29;100548.00;;;29.59;56.52
47530;BME280;33272;51.922;7.730;2022-08-19T12:14:56;100548.75;;;29.78;55.66
47530;BME280;33272;51.922;7.730;2022-08-19T12:17:25;100539.91;;;29.87;54.97
47530;BME280;33272;51.922;7.730;2022-08-19T12:19:52;100548.75;;;29.83;55.64
47530;BME280;33272;51.922;7.730;2022-08-19T12:22:21;100540.66;;;30.01;54.87
47530;BME280;33272;51.922;7.730;2022-08-19T12:24:48;100545.22;;;29.84;54.43
47530;BME280;33272;51.922;7.730;2022-08-19T12:27:18;100543.38;;;29.90;54.59
47530;BME280;33272;51.922;7.730;2022-08-19T12:29:45;100532.66;;;30.07;55.01
47530;BME280;33272;51.922;7.730;2022-08-19T12:32:12;100542.38;;;30.05;54.84
47530;BME280;33272;51.922;7.730;2022-08-19T12:34:39;100541.69;;;29.86;55.19
47530;BME280;33272;51.922;7.730;2022-08-19T12:37:07;100536.63;;;29.52;55.27
47530;BME280;33272;51.922;7.730;2022-08-19T12:39:38;100545.53;;;29.28;56.25
47530;BME280;33272;51.922;7.730;2022-08-19T12:42:06;100536.91;;;29.05;55.95
47530;BME280;33272;51.922;7.730;2022-08-19T12:44:35;100536.13;;;28.75;56.75
47530;BME280;33272;51.922;7.730;2022-08-19T12:47:02;100539.69;;;28.53;57.34
47530;BME280;33272;51.922;7.730;2022-08-19T12:49:31;100528.31;;;28.43;57.23
47530;BME280;33272;51.922;7.730;2022-08-19T12:51:59;100539.72;;;28.37;57.22
47530;BME280;33272;51.922;7.730;2022-08-19T12:54:27;100527.44;;;28.38;57.22